Time;durP1;ratioP1;P1;durP2;ratioP2;P2;SDS_P1;SDS_P2;PMS_P1;PMS_P2;Temp;Humidity;BMP_temperature;BMP_pressure;BME280_temperature;BME280_humidity;BME280_pressure;Samples;Min_cycle;Max_cycle;Signal;HPM_P1;HPM_P2
2021/07/31 00:00:17;;;;;;;16.35;9.07;;;;;;;29.38;43.01;99200.25;5041206;28;20032;-69
2021/07/31 00:02:42;;;;;;;21.25;8.77;;;;;;;29.30;43.24;99201.75;5043288;28;20031;-69
2021/07/31 00:05:08;;;;;;;25.00;9.85;;;;;;;29.09;43.87;99208.59;5041019;28;20030;-69
2021/07/31 00:07:33;;;;;;;19.77;8.75;;;;;;;28.77;44.86;99206.59;5040412;28;20051;-69
2021/07/31 00:09:58;;;;;;;23.10;9.60;;;;;;;28.61;45.74;99197.84;5039101;28;20038;-69
2021/07/31 00:12:24;;;;;;;17.52;9.40;;;;;;;28.10;47.32;99200.38;5041094;28;20033;-69
2021/07/31 00:14:50;;;;;;;19.98;8.95;;;;;;;27.75;47.98;99202.38;5042916;28;20056;-69
2021/07/31 00:17:15;;;;;;;24.90;8.95;;;;;;;27.65;48.77;99207.91;5038924;28;20349;-69
2021/07/31 00:19:40;;;;;;;30.20;10.20;;;;;;;27.85;48.07;99207.69;5039451;28;20021;-69
2021/07/31 00:22:06;;;;;;;21.45;8.90;;;;;;;27.90;48.19;99207.63;5039921;28;20265;-69
2021/07/31 00:24:31;;;;;;;22.08;8.98;;;;;;;28.10;47.83;99200.38;5038709;28;20359;-69
2021/07/31 00:26:57;;;;;;;21.77;9.05;;;;;;;28.13;47.73;99203.31;5039239;28;20039;-69
2021/07/31 00:29:23;;;;;;;30.23;8.93;;;;;;;28.36;47.05;99196.28;5041550;28;20250;-69
2021/07/31 00:31:48;;;;;;;26.13;9.07;;;;;;;28.33;47.09;99188.69;5042771;28;20037;-69
2021/07/31 00:34:14;;;;;;;25.25;8.80;;;;;;;28.37;47.06;99205.25;5039567;28;20040;-69
2021/07/31 00:36:39;;;;;;;17.35;8.38;;;;;;;28.43;47.34;99204.88;5050751;28;20045;-69
2021/07/31 00:39:04;;;;;;;17.20;8.27;;;;;;;28.52;46.93;99205.06;5038635;28;20041;-69
2021/07/31 00:41:30;;;;;;;25.52;8.35;;;;;;;28.61;46.81;99216.91;5038882;28;20309;-69
2021/07/31 00:43:55;;;;;;;14.98;7.32;;;;;;;28.42;47.12;99197.81;5042619;28;20041;-69
2021/07/31 00:46:21;;;;;;;22.98;8.73;;;;;;;28.52;46.91;99210.50;5041364;28;20033;-69
2021/07/31 00:48:47;;;;;;;19.85;8.32;;;;;;;28.64;46.55;99204.63;5040076;28;20076;-69
2021/07/31 00:51:14;;;;;;;20.17;8.18;;;;;;;28.85;45.86;99205.97;5038418;28;20084;-69
2021/07/31 00:53:43;;;;;;;23.83;8.57;;;;;;;28.76;46.01;99205.78;5038856;28;20338;-69
2021/07/31 00:56:09;;;;;;;20.85;9.18;;;;;;;28.77;45.86;99212.88;5040064;28;20100;-69
2021/07/31 00:58:35;;;;;;;21.42;8.02;;;;;;;28.49;46.67;99211.09;5038598;28;20095;-69
2021/07/31 01:01:01;;;;;;;23.00;8.80;;;;;;;28.34;47.35;99217.53;5039653;28;20196;-69
2021/07/31 01:03:27;;;;;;;20.00;8.23;;;;;;;28.40;46.86;99208.19;5042172;28;20021;-69
2021/07/31 01:05:53;;;;;;;23.58;8.30;;;;;;;28.44;47.15;99219.31;5041091;28;20071;-70
2021/07/31 01:08:18;;;;;;;19.30;9.13;;;;;;;28.50;46.72;99210.78;5038367;28;20077;-69
2021/07/31 01:10:44;;;;;;;25.52;9.68;;;;;;;28.32;46.90;99181.63;5037819;28;20326;-69
2021/07/31 01:13:10;;;;;;;25.83;9.23;;;;;;;28.44;47.00;99201.06;5038149;28;20037;-69
2021/07/31 01:15:36;;;;;;;22.52;9.55;;;;;;;28.35;47.44;99205.53;5038188;28;20037;-69
2021/07/31 01:18:02;;;;;;;17.50;9.18;;;;;;;28.22;48.04;99206.22;5039058;28;20070;-69
2021/07/31 01:20:27;;;;;;;20.15;9.65;;;;;;;27.89;49.00;99216.91;5038152;28;20033;-69
2021/07/31 01:22:52;;;;;;;17.90;9.00;;;;;;;27.92;48.95;99201.91;5038149;28;20029;-69
2021/07/31 01:25:20;;;;;;;20.08;9.40;;;;;;;27.72;49.04;99188.53;5037161;28;20025;-69
2021/07/31 01:27:45;;;;;;;22.10;9.95;;;;;;;27.78;49.48;99188.19;5037964;28;20033;-69
2021/07/31 01:30:11;;;;;;;26.05;10.02;;;;;;;27.69;49.67;99186.38;5038101;28;20037;-69
2021/07/31 01:32:37;;;;;;;30.23;11.10;;;;;;;27.60;49.91;99195.16;5039961;28;20112;-69
2021/07/31 01:35:03;;;;;;;26.42;9.90;;;;;;;27.58;50.59;99197.34;5040631;28;20045;-69
2021/07/31 01:37:30;;;;;;;17.63;9.75;;;;;;;27.40;50.52;99179.00;5037693;28;20009;-69
2021/07/31 01:39:55;;;;;;;19.48;9.25;;;;;;;27.56;50.50;99212.31;5038729;28;20033;-69
2021/07/31 01:42:21;;;;;;;26.92;10.55;;;;;;;27.49;50.49;99207.22;5037455;28;20044;-69
2021/07/31 01:44:47;;;;;;;23.42;10.02;;;;;;;27.62;50.09;99201.13;5037836;28;20032;-69
2021/07/31 01:47:12;;;;;;;19.27;9.90;;;;;;;27.72;49.97;99197.50;5038540;28;20033;-69
2021/07/31 01:49:37;;;;;;;17.52;9.23;;;;;;;27.69;50.04;99194.53;5037343;28;20265;-69
2021/07/31 01:52:03;;;;;;;26.92;10.15;;;;;;;27.56;50.31;99199.53;5041405;28;20079;-69
2021/07/31 01:54:28;;;;;;;22.20;9.65;;;;;;;27.67;50.44;99205.72;5037245;28;20029;-70
2021/07/31 01:56:54;;;;;;;20.17;9.75;;;;;;;27.75;49.73;99207.81;5039391;28;20030;-70
2021/07/31 01:59:19;;;;;;;24.85;10.32;;;;;;;27.72;50.13;99210.28;5038497;28;20029;-70
2021/07/31 02:01:45;;;;;;;23.50;10.38;;;;;;;27.61;50.37;99198.69;5037556;28;20211;-70
2021/07/31 02:04:10;;;;;;;23.85;9.30;;;;;;;27.60;51.03;99210.66;5037287;28;20385;-70
2021/07/31 02:06:36;;;;;;;22.50;9.02;;;;;;;27.65;49.96;99192.41;5039209;28;20037;-70
2021/07/31 02:09:01;;;;;;;14.30;8.30;;;;;;;27.67;49.98;99200.28;5040718;28;20033;-70
2021/07/31 02:11:27;;;;;;;21.13;9.35;;;;;;;27.69;50.40;99199.97;5038910;28;20080;-70
2021/07/31 02:13:52;;;;;;;26.88;9.40;;;;;;;27.67;50.19;99198.34;5038519;28;20040;-70
2021/07/31 02:16:24;;;;;;;25.27;10.23;;;;;;;27.70;49.86;99202.41;5037236;28;20040;-71
2021/07/31 02:18:51;;;;;;;21.52;9.18;;;;;;;27.68;51.04;99207.31;5037280;28;20033;-70
2021/07/31 02:21:17;;;;;;;23.10;9.57;;;;;;;27.53;50.64;99216.41;5038053;28;20042;-70
2021/07/31 02:23:43;;;;;;;18.20;9.02;;;;;;;27.57;50.08;99206.59;5036451;28;20363;-70
2021/07/31 02:26:09;;;;;;;28.98;9.50;;;;;;;27.74;49.66;99208.91;5036932;28;20032;-70
2021/07/31 02:28:34;;;;;;;21.08;9.80;;;;;;;27.56;50.12;99198.72;5037770;28;20033;-70
2021/07/31 02:30:59;;;;;;;17.98;10.13;;;;;;;27.36;50.89;99210.59;5036969;28;20341;-70
2021/07/31 02:33:25;;;;;;;19.23;10.32;;;;;;;27.16;51.20;99200.69;5038341;28;20036;-70
2021/07/31 02:35:50;;;;;;;19.45;10.18;;;;;;;26.73;52.72;99205.00;5032004;28;20028;-70
2021/07/31 02:38:16;;;;;;;26.52;11.23;;;;;;;26.28;53.99;99198.69;5037207;28;20029;-70
2021/07/31 02:40:41;;;;;;;23.92;11.77;;;;;;;25.90;55.37;99196.63;5037552;28;20044;-70
2021/07/31 02:43:06;;;;;;;19.13;10.38;;;;;;;25.90;55.33;99202.88;5036866;28;20032;-70
2021/07/31 02:45:32;;;;;;;21.40;11.27;;;;;;;25.90;55.27;99199.34;5037832;28;20246;-70
2021/07/31 02:47:57;;;;;;;28.17;10.45;;;;;;;25.77;54.19;99203.44;5036409;28;20048;-70
2021/07/31 02:50:23;;;;;;;18.13;10.25;;;;;;;25.57;54.33;99182.56;5036505;28;20211;-70
2021/07/31 02:52:48;;;;;;;25.45;11.13;;;;;;;25.87;54.63;99208.84;5036802;28;20033;-70
2021/07/31 02:55:14;;;;;;;20.70;11.27;;;;;;;26.02;54.16;99208.81;5037686;28;20071;-70
2021/07/31 02:57:39;;;;;;;20.35;10.77;;;;;;;26.10;54.42;99215.59;5036560;28;20061;-70
2021/07/31 03:00:06;;;;;;;24.25;10.88;;;;;;;26.11;54.65;99213.69;5036803;28;20231;-70
2021/07/31 03:02:32;;;;;;;17.13;10.70;;;;;;;26.02;54.58;99218.88;5037703;28;20034;-71
2021/07/31 03:04:57;;;;;;;24.58;11.60;;;;;;;26.29;54.06;99221.22;5036451;28;20083;-70
2021/07/31 03:07:23;;;;;;;23.67;11.48;;;;;;;26.31;54.10;99213.59;5037726;28;20021;-70
2021/07/31 03:09:48;;;;;;;28.05;11.80;;;;;;;26.32;54.05;99216.06;5036395;28;20040;-70
2021/07/31 03:12:14;;;;;;;31.75;12.00;;;;;;;26.11;54.65;99232.69;5036462;28;20028;-70
2021/07/31 03:14:40;;;;;;;33.25;13.02;;;;;;;25.75;55.77;99227.31;5036897;28;20038;-70
2021/07/31 03:17:06;;;;;;;26.80;11.50;;;;;;;26.07;55.02;99225.09;5036543;28;20377;-70
2021/07/31 03:19:31;;;;;;;29.05;11.93;;;;;;;26.30;54.30;99228.28;5037166;28;20076;-70
2021/07/31 03:21:57;;;;;;;55.65;13.50;;;;;;;26.40;53.94;99225.53;5035549;28;20092;-70
2021/07/31 03:24:22;;;;;;;44.88;13.98;;;;;;;26.41;53.66;99221.75;5036494;28;20211;-70
2021/07/31 03:26:48;;;;;;;33.22;12.00;;;;;;;26.25;54.39;99234.53;5037539;28;20355;-70
2021/07/31 03:29:13;;;;;;;27.90;11.88;;;;;;;26.21;54.87;99235.34;5030766;28;20033;-70
2021/07/31 03:31:38;;;;;;;38.58;12.25;;;;;;;26.38;54.02;99235.88;5036591;28;20037;-70
2021/07/31 03:34:04;;;;;;;41.65;12.52;;;;;;;26.53;53.73;99233.09;5037456;28;20029;-70
2021/07/31 03:36:29;;;;;;;36.60;12.57;;;;;;;26.63;53.25;99227.59;5038914;28;20043;-70
2021/07/31 03:38:55;;;;;;;34.60;12.85;;;;;;;26.65;52.93;99236.28;5039808;28;20125;-70
2021/07/31 03:41:20;;;;;;;25.48;13.38;;;;;;;26.66;53.20;99240.63;5037420;28;20033;-70
2021/07/31 03:43:45;;;;;;;24.73;12.45;;;;;;;26.41;53.67;99246.16;5036348;28;20267;-70
2021/07/31 03:46:11;;;;;;;41.15;14.15;;;;;;;26.41;53.81;99251.59;5036234;28;20090;-70
2021/07/31 03:48:36;;;;;;;33.20;13.43;;;;;;;26.46;53.65;99250.78;5037384;28;20056;-70
2021/07/31 03:51:02;;;;;;;33.17;12.98;;;;;;;26.66;53.02;99251.50;5036137;28;20060;-70
2021/07/31 03:53:28;;;;;;;39.08;16.92;;;;;;;26.71;53.09;99253.38;5036901;28;20036;-70
2021/07/31 03:55:53;;;;;;;40.05;15.30;;;;;;;26.57;53.62;99252.34;5036054;28;20041;-70
2021/07/31 03:58:19;;;;;;;42.85;15.40;;;;;;;26.18;54.60;99263.88;5036349;28;20036;-70
2021/07/31 04:00:44;;;;;;;35.53;14.93;;;;;;;26.19;54.62;99267.38;5034553;28;20131;-70
2021/07/31 04:03:10;;;;;;;34.58;13.50;;;;;;;26.28;54.17;99265.72;5039557;28;20049;-70
2021/07/31 04:05:40;;;;;;;37.13;14.40;;;;;;;26.57;53.62;99263.22;5040480;28;20033;-70
2021/07/31 04:08:06;;;;;;;33.15;14.23;;;;;;;26.87;52.68;99254.09;5038934;28;20218;-70
2021/07/31 04:10:31;;;;;;;35.88;13.23;;;;;;;26.90;52.32;99267.13;5030432;28;20022;-70
2021/07/31 04:12:57;;;;;;;36.17;13.48;;;;;;;26.77;52.42;99257.69;5040376;28;20091;-70
2021/07/31 04:15:22;;;;;;;35.38;14.07;;;;;;;26.33;54.35;99279.31;5039761;28;20028;-70
2021/07/31 04:17:48;;;;;;;43.58;14.70;;;;;;;26.36;54.21;99278.75;5034939;28;20258;-70
2021/07/31 04:20:13;;;;;;;39.47;15.00;;;;;;;26.83;53.21;99269.31;5039196;28;20087;-70
2021/07/31 04:22:39;;;;;;;37.78;13.68;;;;;;;26.98;52.64;99272.78;5039410;28;20083;-70
2021/07/31 04:25:05;;;;;;;33.42;13.50;;;;;;;27.11;52.33;99278.72;5039994;28;20029;-70
2021/07/31 04:27:32;;;;;;;41.42;14.32;;;;;;;27.22;52.22;99280.28;5039198;28;20319;-70
2021/07/31 04:29:58;;;;;;;37.72;14.07;;;;;;;26.99;53.05;99277.13;5036651;28;20029;-71
2021/07/31 04:32:23;;;;;;;43.63;14.93;;;;;;;27.23;52.20;99280.00;5039253;28;20060;-70
2021/07/31 04:34:49;;;;;;;40.97;14.77;;;;;;;27.42;51.45;99284.75;5039302;28;20039;-70
2021/07/31 04:37:14;;;;;;;41.25;13.77;;;;;;;27.76;50.49;99284.78;5039848;28;20215;-70
2021/07/31 04:39:40;;;;;;;31.08;13.05;;;;;;;27.71;51.06;99293.78;5038778;28;20357;-70
2021/07/31 04:42:05;;;;;;;36.45;13.18;;;;;;;27.88;50.37;99294.19;5039592;28;20024;-70
2021/07/31 04:44:31;;;;;;;35.13;13.13;;;;;;;28.25;49.67;99287.34;5039622;28;20107;-70
2021/07/31 04:46:56;;;;;;;33.00;13.00;;;;;;;28.47;48.81;99284.09;5039086;28;20100;-70
2021/07/31 04:49:22;;;;;;;31.83;12.95;;;;;;;28.71;48.37;99293.06;5039972;28;20033;-70
2021/07/31 04:51:48;;;;;;;38.03;12.35;;;;;;;28.89;47.87;99277.84;5038834;28;20037;-70
2021/07/31 04:54:15;;;;;;;36.67;13.90;;;;;;;29.03;47.93;99286.94;5032963;28;20021;-70
2021/07/31 04:56:41;;;;;;;40.72;11.95;;;;;;;29.10;47.34;99279.19;5039248;28;20064;-70
2021/07/31 04:59:06;;;;;;;30.35;11.60;;;;;;;29.33;46.86;99293.88;5038893;28;20068;-70
2021/07/31 05:01:31;;;;;;;29.60;12.15;;;;;;;29.49;45.89;99289.00;5040215;28;20083;-70
2021/07/31 05:03:57;;;;;;;18.83;8.63;;;;;;;29.52;45.16;99296.59;5038540;28;20037;-70
2021/07/31 05:06:22;;;;;;;25.35;9.93;;;;;;;29.57;45.18;99284.81;5038285;28;20210;-70
2021/07/31 05:08:49;;;;;;;18.90;8.85;;;;;;;29.58;44.74;99286.41;5038882;28;20028;-70
2021/07/31 05:11:14;;;;;;;16.60;8.00;;;;;;;29.77;43.97;99288.00;5038272;28;20258;-70
2021/07/31 05:13:40;;;;;;;18.42;8.50;;;;;;;29.91;43.78;99285.28;5038367;28;20029;-71
2021/07/31 05:16:05;;;;;;;21.15;9.68;;;;;;;29.90;44.00;99297.31;5041954;28;20037;-71
2021/07/31 05:18:31;;;;;;;20.35;8.88;;;;;;;30.04;44.04;99287.25;5038913;28;20630;-70
2021/07/31 05:20:58;;;;;;;22.40;9.88;;;;;;;30.42;43.23;99285.19;5040372;28;20025;-71
2021/07/31 05:23:24;;;;;;;25.88;9.30;;;;;;;30.67;42.17;99291.28;5042899;28;20340;-70
2021/07/31 05:25:49;;;;;;;20.65;8.52;;;;;;;30.76;42.13;99290.25;5041697;28;20034;-70
2021/07/31 05:28:15;;;;;;;25.25;8.77;;;;;;;31.02;41.37;99285.03;5042840;28;20021;-71
2021/07/31 05:30:41;;;;;;;18.98;8.73;;;;;;;31.43;40.65;99304.09;5043336;28;20338;-71
2021/07/31 05:33:07;;;;;;;17.40;8.55;;;;;;;31.10;41.09;99297.97;5042870;28;20018;-70
2021/07/31 05:35:33;;;;;;;18.35;8.85;;;;;;;30.89;41.60;99280.41;5042438;28;20064;-70
2021/07/31 05:37:58;;;;;;;15.70;8.00;;;;;;;31.29;41.14;99300.63;5041297;28;20398;-71
2021/07/31 05:40:24;;;;;;;20.20;8.77;;;;;;;31.08;41.97;99308.41;5042458;28;20311;-70
2021/07/31 05:42:49;;;;;;;21.17;7.93;;;;;;;31.27;40.74;99310.25;5042660;28;20037;-70
2021/07/31 05:45:15;;;;;;;25.05;7.97;;;;;;;31.31;41.01;99295.66;5042422;28;20036;-71
2021/07/31 05:47:40;;;;;;;18.08;8.43;;;;;;;31.57;40.66;99304.03;5042579;28;20287;-71
2021/07/31 05:50:07;;;;;;;17.70;8.27;;;;;;;31.72;40.16;99303.69;5042482;28;20045;-70
2021/07/31 05:52:35;;;;;;;26.60;8.88;;;;;;;31.46;40.42;99299.13;5042309;28;20040;-71
2021/07/31 05:55:00;;;;;;;25.73;8.52;;;;;;;31.68;39.97;99304.59;5042105;28;20037;-71
2021/07/31 05:57:26;;;;;;;22.63;8.35;;;;;;;31.42;40.89;99299.75;5042332;28;20029;-71
2021/07/31 05:59:51;;;;;;;20.20;8.40;;;;;;;31.69;40.27;99301.59;5042234;28;20041;-71
2021/07/31 06:02:17;;;;;;;26.17;8.55;;;;;;;32.01;39.74;99308.69;5042436;28;20327;-71
2021/07/31 06:04:43;;;;;;;16.42;8.32;;;;;;;31.97;39.45;99302.22;5042006;28;20044;-71
2021/07/31 06:07:10;;;;;;;20.65;7.75;;;;;;;31.43;40.89;99306.84;5041056;28;20021;-71
2021/07/31 06:09:40;;;;;;;25.75;7.53;;;;;;;31.49;41.07;99271.16;5040636;28;20215;-71
2021/07/31 06:12:07;;;;;;;21.50;7.28;;;;;;;32.38;39.00;99303.94;5038375;28;20078;-71
2021/07/31 06:14:35;;;;;;;20.40;7.30;;;;;;;32.65;38.51;99305.63;5037060;28;20030;-71
2021/07/31 06:17:00;;;;;;;16.45;7.05;;;;;;;32.85;38.82;99304.25;5035129;28;20037;-71
2021/07/31 06:19:28;;;;;;;21.13;7.53;;;;;;;32.06;40.83;99302.28;5037218;28;20021;-70
2021/07/31 06:21:53;;;;;;;23.35;7.20;;;;;;;31.87;41.29;99296.22;5037132;28;20079;-71
2021/07/31 06:24:19;;;;;;;20.08;7.88;;;;;;;31.60;42.44;99294.41;5038233;28;20100;-71
2021/07/31 06:26:44;;;;;;;17.23;7.45;;;;;;;31.71;41.94;99293.88;5037024;28;20326;-71
2021/07/31 06:29:10;;;;;;;18.90;7.22;;;;;;;31.43;42.64;99306.03;5038327;28;20032;-71
2021/07/31 06:31:35;;;;;;;21.30;7.47;;;;;;;31.92;41.81;99296.09;5036901;28;20204;-71
2021/07/31 06:34:01;;;;;;;17.65;8.15;;;;;;;32.43;40.60;99301.03;5037455;28;20029;-71
2021/07/31 06:36:26;;;;;;;17.67;7.43;;;;;;;32.78;40.44;99303.91;5037713;28;20037;-71
2021/07/31 06:38:52;;;;;;;42.35;8.18;;;;;;;32.46;40.89;99299.59;5036605;28;20043;-71
2021/07/31 06:41:17;;;;;;;15.68;7.50;;;;;;;32.37;41.64;99308.59;5038395;28;20052;-71
2021/07/31 06:43:43;;;;;;;16.50;7.78;;;;;;;32.57;41.38;99312.69;5034887;28;20025;-71
2021/07/31 06:46:23;;;;;;;16.35;7.35;;;;;;;32.67;41.07;99308.84;5037101;28;20030;-71
2021/07/31 06:48:48;;;;;;;19.58;8.20;;;;;;;32.53;41.62;99311.72;5034224;28;20036;-71
2021/07/31 06:51:15;;;;;;;26.75;8.30;;;;;;;33.03;39.83;99305.88;5037268;28;20034;-71
2021/07/31 06:53:40;;;;;;;16.33;7.15;;;;;;;33.92;38.29;99294.28;5036376;28;20342;-71
2021/07/31 06:56:06;;;;;;;20.15;7.60;;;;;;;34.14;37.59;99306.16;5038079;28;20040;-71
2021/07/31 06:58:31;;;;;;;16.38;7.97;;;;;;;33.99;38.07;99302.00;5036782;28;20032;-71
2021/07/31 07:00:56;;;;;;;16.35;7.75;;;;;;;34.27;36.93;99302.41;5038143;28;20029;-71
2021/07/31 07:03:22;;;;;;;18.60;7.18;;;;;;;34.68;36.81;99304.50;5036474;28;20376;-71
2021/07/31 07:05:48;;;;;;;17.00;8.32;;;;;;;34.19;37.73;99308.72;5034729;28;20060;-71
2021/07/31 07:08:13;;;;;;;21.65;7.80;;;;;;;34.04;37.80;99298.28;5037475;28;20031;-71
2021/07/31 07:10:39;;;;;;;20.58;7.65;;;;;;;33.94;37.73;99299.44;5036587;28;20045;-70
2021/07/31 07:13:04;;;;;;;12.10;7.07;;;;;;;34.01;38.12;99291.50;5036260;28;20091;-71
2021/07/31 07:15:30;;;;;;;18.30;7.88;;;;;;;34.02;38.43;99295.06;5037242;28;20116;-71
2021/07/31 07:17:56;;;;;;;19.98;7.65;;;;;;;34.13;37.76;99291.63;5036609;28;20029;-71
2021/07/31 07:20:23;;;;;;;23.90;7.53;;;;;;;34.67;36.60;99294.66;5029318;28;20282;-71
2021/07/31 07:22:49;;;;;;;16.85;7.22;;;;;;;34.71;36.79;99294.78;5036602;28;20037;-71
2021/07/31 07:25:14;;;;;;;20.27;7.60;;;;;;;35.01;36.52;99290.88;5036351;28;20342;-71
2021/07/31 07:27:39;;;;;;;19.02;8.20;;;;;;;34.68;36.47;99290.75;5037684;28;20038;-71
2021/07/31 07:30:06;;;;;;;15.88;7.30;;;;;;;34.28;37.12;99280.06;5036403;28;20091;-71
2021/07/31 07:32:33;;;;;;;10.93;6.63;;;;;;;34.72;35.78;99285.41;5036496;28;20105;-71
2021/07/31 07:34:59;;;;;;;14.75;6.75;;;;;;;34.79;35.20;99285.69;5039881;28;20418;-71
2021/07/31 07:37:24;;;;;;;14.48;7.00;;;;;;;34.60;36.33;99288.06;5040164;28;20033;-71
2021/07/31 07:39:50;;;;;;;15.30;7.38;;;;;;;34.68;36.19;99293.50;5041092;28;20856;-71
2021/07/31 07:42:15;;;;;;;23.20;7.03;;;;;;;35.08;35.63;99291.16;5039927;28;20061;-71
2021/07/31 07:44:40;;;;;;;17.67;6.90;;;;;;;35.20;34.28;99290.41;5039948;28;20037;-71
2021/07/31 07:47:06;;;;;;;20.13;6.82;;;;;;;34.53;35.36;99263.84;5041060;28;20033;-71
2021/07/31 07:49:31;;;;;;;16.73;7.35;;;;;;;35.12;35.06;99283.03;5039933;28;20240;-71
2021/07/31 07:51:57;;;;;;;18.35;6.40;;;;;;;34.99;34.59;99278.63;5041418;28;20049;-71
2021/07/31 07:54:22;;;;;;;14.25;7.00;;;;;;;35.32;34.55;99282.25;5039522;28;20075;-71
2021/07/31 07:56:47;;;;;;;22.30;7.40;;;;;;;34.85;34.30;99271.44;5040448;28;20075;-71
2021/07/31 07:59:13;;;;;;;19.23;7.80;;;;;;;35.05;33.81;99269.00;5040818;28;20037;-71
2021/07/31 08:01:38;;;;;;;18.73;8.02;;;;;;;34.99;34.31;99275.88;5039796;28;20060;-71
2021/07/31 08:04:04;;;;;;;19.27;7.35;;;;;;;35.11;33.76;99267.66;5039225;28;20032;-71
2021/07/31 08:06:29;;;;;;;17.05;8.35;;;;;;;35.20;33.26;99269.22;5040438;28;20274;-71
2021/07/31 08:08:55;;;;;;;20.55;8.57;;;;;;;35.35;34.31;99265.06;5039489;28;20030;-71
2021/07/31 08:11:20;;;;;;;17.80;7.78;;;;;;;35.34;34.45;99271.72;5040663;28;20036;-71
2021/07/31 08:13:46;;;;;;;18.17;8.52;;;;;;;35.20;32.70;99260.94;5039486;28;20029;-71
2021/07/31 08:16:12;;;;;;;18.30;8.07;;;;;;;35.59;31.73;99256.09;5037543;28;20061;-71
2021/07/31 08:18:38;;;;;;;19.65;7.47;;;;;;;35.81;32.68;99257.69;5039843;28;20237;-71
2021/07/31 08:21:04;;;;;;;18.15;8.13;;;;;;;35.78;32.34;99253.63;5039573;28;20101;-71
2021/07/31 08:23:29;;;;;;;20.42;7.28;;;;;;;35.64;31.07;99241.31;5040308;28;20037;-71
2021/07/31 08:25:55;;;;;;;20.08;7.53;;;;;;;35.86;32.14;99237.38;5037260;28;20120;-71
2021/07/31 08:28:20;;;;;;;19.90;7.05;;;;;;;35.82;32.45;99249.09;5039796;28;20330;-71
2021/07/31 08:30:46;;;;;;;28.00;8.45;;;;;;;35.77;31.35;99240.19;5040093;28;20214;-71
2021/07/31 08:33:11;;;;;;;17.98;6.47;;;;;;;35.74;31.98;99240.88;5030346;28;20040;-71
2021/07/31 08:35:37;;;;;;;23.25;6.60;;;;;;;35.69;29.70;99227.34;5040086;28;20091;-71
2021/07/31 08:38:02;;;;;;;21.42;7.25;;;;;;;36.01;31.99;99228.44;5041236;28;20029;-71
2021/07/31 08:40:28;;;;;;;21.40;6.88;;;;;;;35.40;32.40;99226.34;5042991;28;20235;-71
2021/07/31 08:42:53;;;;;;;16.55;7.53;;;;;;;35.72;31.52;99221.13;5040906;28;20309;-71
2021/07/31 08:45:19;;;;;;;18.00;9.35;;;;;;;35.78;31.43;99228.03;5036812;28;20040;-71
2021/07/31 08:47:46;;;;;;;18.27;7.97;;;;;;;35.51;30.98;99213.75;5038975;28;20056;-71
2021/07/31 08:50:12;;;;;;;19.73;8.00;;;;;;;35.46;30.69;99211.22;5040256;28;20052;-71
2021/07/31 08:52:40;;;;;;;16.10;7.85;;;;;;;35.53;30.82;99223.63;5038922;28;20037;-71
2021/07/31 08:55:05;;;;;;;23.27;7.95;;;;;;;35.90;31.03;99219.00;5035795;28;20068;-71
2021/07/31 08:57:31;;;;;;;23.85;8.52;;;;;;;35.57;31.97;99222.59;5039467;28;20331;-71
2021/07/31 08:59:56;;;;;;;20.65;8.18;;;;;;;35.63;31.47;99215.72;5038806;28;20040;-71
2021/07/31 09:02:22;;;;;;;17.63;8.02;;;;;;;35.87;31.73;99219.69;5039909;28;20323;-71
2021/07/31 09:04:50;;;;;;;21.90;8.43;;;;;;;35.38;30.66;99211.31;5036742;28;21196;-71
2021/07/31 09:07:15;;;;;;;20.60;8.45;;;;;;;35.30;30.18;99221.19;5038488;28;20036;-71
2021/07/31 09:09:41;;;;;;;21.63;7.95;;;;;;;35.87;29.79;99216.94;5039408;28;20231;-71
2021/07/31 09:12:08;;;;;;;19.40;8.98;;;;;;;36.00;30.24;99191.81;5038340;28;20025;-71
2021/07/31 09:14:36;;;;;;;26.52;9.57;;;;;;;35.86;30.34;99215.34;5035817;28;20041;-71
2021/07/31 09:17:02;;;;;;;21.33;8.73;;;;;;;36.03;31.18;99213.16;5039513;28;20428;-71
2021/07/31 09:19:28;;;;;;;24.35;8.55;;;;;;;35.97;30.29;99200.78;5038266;28;20206;-71
2021/07/31 09:22:05;;;;;;;16.95;7.78;;;;;;;36.13;30.04;99217.41;5039449;28;20044;-71
2021/07/31 09:24:31;;;;;;;22.33;8.60;;;;;;;35.87;30.74;99223.25;5038966;28;20064;-71
2021/07/31 09:26:57;;;;;;;19.60;8.63;;;;;;;36.00;29.60;99211.09;5038052;28;20037;-71
2021/07/31 09:29:29;;;;;;;19.60;8.07;;;;;;;36.13;29.89;99209.97;5036943;28;20326;-71
2021/07/31 09:32:02;;;;;;;22.40;8.50;;;;;;;36.14;30.58;99200.53;5039115;28;20359;-71
2021/07/31 09:34:43;;;;;;;21.85;9.27;;;;;;;36.04;29.86;99197.44;5038400;28;20080;-71
2021/07/31 09:37:23;;;;;;;16.80;8.88;;;;;;;36.00;30.97;99200.09;5038209;28;20029;-71
2021/07/31 09:40:03;;;;;;;24.30;9.05;;;;;;;36.23;28.89;99196.84;5038516;28;20045;-71
2021/07/31 09:42:32;;;;;;;16.92;8.23;;;;;;;35.93;29.11;99199.03;5038783;28;20084;-71
2021/07/31 09:45:00;;;;;;;25.08;8.55;;;;;;;35.54;30.22;99200.44;5037965;28;20053;-71
2021/07/31 09:47:25;;;;;;;19.20;8.30;;;;;;;35.82;30.07;99184.91;5035630;28;20223;-71
2021/07/31 09:49:53;;;;;;;24.10;9.25;;;;;;;36.22;29.82;99186.97;5038089;28;20035;-71
2021/07/31 09:52:21;;;;;;;19.17;8.13;;;;;;;36.03;28.88;99188.38;5037679;28;20032;-71
2021/07/31 09:54:47;;;;;;;23.00;8.80;;;;;;;35.88;28.43;99172.53;5036153;28;20043;-71
2021/07/31 09:57:14;;;;;;;24.38;9.00;;;;;;;35.65;32.12;99169.38;5037618;28;20037;-71
2021/07/31 09:59:47;;;;;;;23.25;8.45;;;;;;;35.30;30.27;99166.16;5036686;28;20033;-71
2021/07/31 10:02:17;;;;;;;24.15;8.48;;;;;;;35.34;30.54;99161.59;5035147;28;20033;-71
2021/07/31 10:04:44;;;;;;;22.77;8.10;;;;;;;35.57;31.29;99164.78;5038036;28;20116;-71
2021/07/31 10:07:20;;;;;;;21.13;9.23;;;;;;;35.57;30.63;99167.53;5037190;28;20373;-71
2021/07/31 10:09:49;;;;;;;27.42;9.07;;;;;;;35.53;31.48;99163.84;5037235;28;20260;-71
2021/07/31 10:12:17;;;;;;;29.40;8.57;;;;;;;35.78;30.58;99154.47;5040136;28;20331;-71
2021/07/31 10:14:44;;;;;;;22.33;8.63;;;;;;;35.77;30.96;99149.31;5041016;28;20041;-71
2021/07/31 10:17:13;;;;;;;24.02;8.60;;;;;;;35.62;30.97;99149.97;5038499;28;20037;-71
2021/07/31 10:19:40;;;;;;;21.08;9.18;;;;;;;35.60;29.66;99150.31;5036950;28;20284;-71
2021/07/31 10:22:05;;;;;;;22.20;8.63;;;;;;;35.78;30.63;99151.72;5038364;28;20319;-71
2021/07/31 10:24:53;;;;;;;20.90;9.15;;;;;;;35.58;30.54;99143.56;5040145;28;20079;-71
2021/07/31 10:27:23;;;;;;;24.40;8.95;;;;;;;35.48;30.64;99140.09;5039926;28;20038;-71
2021/07/31 10:29:53;;;;;;;25.25;8.23;;;;;;;35.51;29.79;99136.66;5038088;28;20032;-71
2021/07/31 10:32:22;;;;;;;22.65;8.57;;;;;;;35.46;29.84;99125.88;5036896;28;20303;-71
2021/07/31 10:35:00;;;;;;;21.50;8.90;;;;;;;35.42;30.44;99124.16;5036718;28;20037;-71
2021/07/31 10:37:32;;;;;;;29.00;8.80;;;;;;;35.38;30.26;99128.72;5034383;28;20103;-71
2021/07/31 10:40:03;;;;;;;21.40;8.15;;;;;;;35.48;30.00;99122.78;5037385;28;20048;-71
2021/07/31 10:42:47;;;;;;;21.00;8.50;;;;;;;35.69;30.49;99119.94;5038095;28;20202;-71
2021/07/31 10:45:15;;;;;;;25.27;8.35;;;;;;;35.59;29.50;99115.66;5036993;28;20116;-71
2021/07/31 10:47:45;;;;;;;20.80;8.30;;;;;;;35.49;30.76;99116.94;5037369;28;20119;-71
2021/07/31 10:50:26;;;;;;;19.33;8.30;;;;;;;35.42;30.08;99115.88;5037998;28;20226;-71
2021/07/31 10:52:55;;;;;;;20.63;8.05;;;;;;;35.68;29.86;99110.84;5037803;28;20039;-71
2021/07/31 10:55:25;;;;;;;21.85;8.65;;;;;;;35.78;30.64;99106.84;5037449;28;20049;-71
2021/07/31 10:57:53;;;;;;;15.85;8.05;;;;;;;35.88;29.48;99086.31;5036694;28;20033;-71
2021/07/31 11:00:32;;;;;;;25.30;8.27;;;;;;;35.66;29.75;99101.34;5037622;28;20319;-71
2021/07/31 11:02:58;;;;;;;22.20;7.78;;;;;;;35.84;30.22;99075.19;5037676;28;20033;-71
2021/07/31 11:05:24;;;;;;;24.75;8.05;;;;;;;36.17;29.48;99086.03;5036578;28;20405;-72
2021/07/31 11:08:00;;;;;;;22.02;7.95;;;;;;;35.70;29.17;99089.28;5037809;28;20219;-70
2021/07/31 11:10:43;;;;;;;22.65;6.97;;;;;;;35.82;29.63;99078.28;5041779;28;20060;-71
2021/07/31 11:13:29;;;;;;;32.83;8.18;;;;;;;35.94;28.88;99074.72;5039871;28;20033;-71
2021/07/31 11:16:00;;;;;;;14.77;6.75;;;;;;;36.00;31.16;99075.28;5030044;28;20454;-71
2021/07/31 11:18:39;;;;;;;25.08;7.03;;;;;;;36.09;30.21;99064.94;5041303;28;20030;-71
2021/07/31 11:21:08;;;;;;;18.65;7.25;;;;;;;36.29;27.98;99063.19;5041737;28;20041;-71